Time;durP1;ratioP1;P1;durP2;ratioP2;P2;SDS_P1;SDS_P2;PMS_P1;PMS_P2;Temp;Humidity;BMP_temperature;BMP_pressure;BME280_temperature;BME280_humidity;BME280_pressure;Samples;Min_cycle;Max_cycle;Signal;HPM_P1;HPM_P2
2022/01/27 00:03:33;;;;;;;58.08;31.55;;;;;;;;;;6220102;23;20031;-87
2022/01/27 00:06:06;;;;;;;61.72;31.90;;;;;;;;;;6193945;23;20004;-86
2022/01/27 00:08:46;;;;;;;58.60;32.33;;;;;;;;;;6194376;23;20264;-87
2022/01/27 00:11:15;;;;;;;57.58;31.35;;;;;;;;;;6194408;23;20001;-87
2022/01/27 00:13:56;;;;;;;59.45;32.35;;;;;;;;;;6195046;23;20004;-87
2022/01/27 00:16:26;;;;;;;55.17;29.33;;;;;;;;;;6221537;23;20427;-87
2022/01/27 00:18:53;;;;;;;51.80;28.45;;;;;;;;;;6221768;23;20011;-87
2022/01/27 00:21:21;;;;;;;53.55;30.25;;;;;;;;;;6170345;23;20005;-87
2022/01/27 00:23:47;;;;;;;52.55;30.25;;;;;;;;;;6221228;23;20360;-87
2022/01/27 00:26:13;;;;;;;56.38;31.50;;;;;;;;;;6194843;23;20011;-85
2022/01/27 00:28:40;;;;;;;57.72;31.17;;;;;;;;;;6221170;23;20009;-88
2022/01/27 00:31:06;;;;;;;57.17;31.30;;;;;;;;;;6220517;23;20051;-87
2022/01/27 00:33:32;;;;;;;62.45;32.10;;;;;;;;;;6194759;23;20429;-89
2022/01/27 00:35:58;;;;;;;57.78;30.60;;;;;;;;;;6216116;23;20554;-87
2022/01/27 00:38:25;;;;;;;61.45;33.88;;;;;;;;;;6194830;23;20000;-87
2022/01/27 00:40:51;;;;;;;59.63;32.72;;;;;;;;;;6220978;23;20008;-88
2022/01/27 00:43:18;;;;;;;62.58;34.78;;;;;;;;;;6194870;23;20009;-88
2022/01/27 00:45:44;;;;;;;66.28;34.92;;;;;;;;;;6194867;23;20027;-88
2022/01/27 00:48:10;;;;;;;61.92;33.38;;;;;;;;;;6221424;23;20226;-88
2022/01/27 00:50:38;;;;;;;63.20;35.22;;;;;;;;;;6194410;23;20437;-88
2022/01/27 00:53:17;;;;;;;64.43;35.17;;;;;;;;;;6194908;23;20012;-89
2022/01/27 00:55:43;;;;;;;61.15;33.00;;;;;;;;;;6194103;23;20091;-89
2022/01/27 01:00:59;;;;;;;56.15;32.05;;;;;;;;;;6224374;23;20364;-88
2022/01/27 01:03:31;;;;;;;58.08;33.72;;;;;;;;;;6193883;23;20040;-88
2022/01/27 01:16:23;;;;;;;55.88;31.35;;;;;;;;;;6229957;23;20339;-87
2022/01/27 01:19:03;;;;;;;56.08;31.30;;;;;;;;;;6184955;23;20054;-88
2022/01/27 01:32:58;;;;;;;63.40;34.42;;;;;;;;;;6220867;23;20047;-87
2022/01/27 01:35:35;;;;;;;56.88;33.72;;;;;;;;;;6220997;23;20005;-87
2022/01/27 01:38:01;;;;;;;56.97;33.30;;;;;;;;;;6221261;23;20391;-88
2022/01/27 01:40:27;;;;;;;55.63;31.80;;;;;;;;;;6220962;23;20012;-87
2022/01/27 01:45:57;;;;;;;51.83;30.70;;;;;;;;;;6220926;23;20016;-88
2022/01/27 01:48:23;;;;;;;56.60;31.70;;;;;;;;;;6194356;23;20032;-87
2022/01/27 01:50:49;;;;;;;59.38;32.17;;;;;;;;;;6194108;23;20000;-87
2022/01/27 01:53:15;;;;;;;57.75;32.50;;;;;;;;;;6194137;23;20063;-87
2022/01/27 01:55:42;;;;;;;57.10;32.65;;;;;;;;;;6220632;23;20008;-88
2022/01/27 01:58:09;;;;;;;63.60;33.20;;;;;;;;;;6221143;23;20005;-88
2022/01/27 02:00:35;;;;;;;58.00;32.40;;;;;;;;;;6169755;23;20021;-87
2022/01/27 02:03:01;;;;;;;60.80;33.50;;;;;;;;;;6220615;22;20020;-87
2022/01/27 02:05:32;;;;;;;58.88;33.20;;;;;;;;;;6220760;23;20011;-88
2022/01/27 02:08:26;;;;;;;61.50;32.88;;;;;;;;;;6220886;23;20000;-87
2022/01/27 02:19:24;;;;;;;72.53;37.17;;;;;;;;;;6221591;23;20052;-88
2022/01/27 02:21:54;;;;;;;70.72;37.97;;;;;;;;;;6222702;23;20056;-87
2022/01/27 02:24:21;;;;;;;71.57;37.15;;;;;;;;;;6222947;23;20005;-88
2022/01/27 02:26:49;;;;;;;64.57;34.20;;;;;;;;;;6196371;23;20005;-88
2022/01/27 02:29:15;;;;;;;65.25;35.00;;;;;;;;;;6196600;23;20008;-87
2022/01/27 02:31:41;;;;;;;65.13;34.50;;;;;;;;;;6196235;23;20009;-86
2022/01/27 02:34:07;;;;;;;59.97;33.58;;;;;;;;;;6222364;23;20001;-87
2022/01/27 02:36:34;;;;;;;58.13;32.00;;;;;;;;;;6196019;23;20001;-86
2022/01/27 02:39:01;;;;;;;56.78;31.35;;;;;;;;;;6196169;23;20272;-85
2022/01/27 02:41:28;;;;;;;59.45;33.15;;;;;;;;;;6222252;23;20008;-85
2022/01/27 02:43:57;;;;;;;62.28;33.00;;;;;;;;;;6222318;23;20375;-86
2022/01/27 02:46:26;;;;;;;74.10;35.50;;;;;;;;;;6222244;23;20356;-87
2022/01/27 02:48:52;;;;;;;78.25;37.20;;;;;;;;;;6222249;23;20319;-87
2022/01/27 02:51:19;;;;;;;72.80;35.70;;;;;;;;;;6222291;23;20005;-87
2022/01/27 02:53:45;;;;;;;73.43;34.55;;;;;;;;;;6222653;23;20099;-86
2022/01/27 02:56:11;;;;;;;64.43;33.88;;;;;;;;;;6222169;23;20001;-86
2022/01/27 02:58:37;;;;;;;59.88;33.10;;;;;;;;;;6195754;23;20394;-87
2022/01/27 03:01:04;;;;;;;60.58;32.70;;;;;;;;;;6195976;23;20372;-87
2022/01/27 03:03:30;;;;;;;66.97;33.53;;;;;;;;;;6221937;22;20466;-87
2022/01/27 03:05:56;;;;;;;71.60;34.47;;;;;;;;;;6222360;23;20068;-86
2022/01/27 03:08:22;;;;;;;69.88;33.72;;;;;;;;;;6222345;23;20012;-88
2022/01/27 03:10:49;;;;;;;76.20;35.28;;;;;;;;;;6195751;23;20001;-87
2022/01/27 03:13:15;;;;;;;76.57;36.50;;;;;;;;;;6222258;23;20000;-87
2022/01/27 03:15:42;;;;;;;84.80;38.92;;;;;;;;;;6222074;23;20095;-87
2022/01/27 03:18:08;;;;;;;85.65;39.08;;;;;;;;;;6222200;23;20008;-87
2022/01/27 03:20:34;;;;;;;76.68;38.58;;;;;;;;;;6195665;23;20040;-87
2022/01/27 03:23:02;;;;;;;81.38;39.00;;;;;;;;;;6222105;23;20012;-88
2022/01/27 03:25:28;;;;;;;77.88;39.15;;;;;;;;;;6195685;23;20039;-87
2022/01/27 03:27:54;;;;;;;78.72;37.33;;;;;;;;;;6222108;23;20001;-86
2022/01/27 03:30:20;;;;;;;64.68;35.22;;;;;;;;;;6221325;23;20013;-87
2022/01/27 03:32:46;;;;;;;64.35;34.38;;;;;;;;;;6195531;23;20028;-86
2022/01/27 03:35:13;;;;;;;60.28;32.65;;;;;;;;;;6221479;23;20000;-87
2022/01/27 03:37:39;;;;;;;57.13;31.25;;;;;;;;;;6195550;23;20083;-86
2022/01/27 03:40:05;;;;;;;55.15;30.77;;;;;;;;;;6195761;23;20059;-87
2022/01/27 03:42:32;;;;;;;52.55;31.15;;;;;;;;;;6195120;23;20092;-87
2022/01/27 03:44:58;;;;;;;51.25;30.42;;;;;;;;;;6221758;23;20368;-87
2022/01/27 03:47:24;;;;;;;52.58;29.13;;;;;;;;;;6221715;23;20004;-88
2022/01/27 03:49:50;;;;;;;56.03;31.85;;;;;;;;;;6221427;23;20399;-87
2022/01/27 03:52:18;;;;;;;53.03;32.25;;;;;;;;;;6221160;23;20364;-87
2022/01/27 03:54:44;;;;;;;48.20;29.13;;;;;;;;;;6221942;23;19997;-87
2022/01/27 04:00:14;;;;;;;53.33;29.27;;;;;;;;;;6221123;23;20023;-87
2022/01/27 04:02:55;;;;;;;53.28;29.30;;;;;;;;;;6221256;23;20016;-87
2022/01/27 04:05:21;;;;;;;50.30;28.75;;;;;;;;;;6195457;23;20083;-87
2022/01/27 04:07:47;;;;;;;49.10;28.42;;;;;;;;;;6194749;23;20009;-86
2022/01/27 04:10:14;;;;;;;50.78;30.02;;;;;;;;;;6221815;23;20001;-87
2022/01/27 04:12:40;;;;;;;50.78;29.92;;;;;;;;;;6194946;23;20007;-87
2022/01/27 04:15:06;;;;;;;55.80;29.77;;;;;;;;;;6195287;23;20087;-87
2022/01/27 04:17:32;;;;;;;51.03;29.70;;;;;;;;;;6195066;23;20409;-87
2022/01/27 04:19:58;;;;;;;51.78;30.83;;;;;;;;;;6221827;23;19996;-88
2022/01/27 04:22:25;;;;;;;56.47;33.00;;;;;;;;;;6195863;23;20000;-87
2022/01/27 04:24:51;;;;;;;54.20;32.65;;;;;;;;;;6195011;23;20312;-87
2022/01/27 04:27:21;;;;;;;53.95;31.20;;;;;;;;;;6221877;23;20004;-88
2022/01/27 04:29:47;;;;;;;56.72;32.53;;;;;;;;;;6221524;23;20009;-88
2022/01/27 04:32:20;;;;;;;56.58;31.27;;;;;;;;;;6220837;23;20007;-87
2022/01/27 04:34:46;;;;;;;50.92;30.35;;;;;;;;;;6195091;23;20387;-86
2022/01/27 04:37:13;;;;;;;48.35;28.83;;;;;;;;;;6195126;23;20233;-87
2022/01/27 04:39:52;;;;;;;57.65;31.70;;;;;;;;;;6221369;23;20035;-88
2022/01/27 04:42:31;;;;;;;52.67;28.55;;;;;;;;;;6194079;23;20028;-86
2022/01/27 04:45:01;;;;;;;52.30;29.75;;;;;;;;;;6221279;23;20047;-87
2022/01/27 04:47:34;;;;;;;56.08;30.08;;;;;;;;;;6221206;23;20245;-87
2022/01/27 04:50:00;;;;;;;57.88;31.38;;;;;;;;;;6221149;23;20386;-87
2022/01/27 04:52:30;;;;;;;62.95;35.97;;;;;;;;;;6221615;23;19993;-86
2022/01/27 04:55:09;;;;;;;57.58;31.98;;;;;;;;;;6194361;23;20008;-88
2022/01/27 04:57:37;;;;;;;48.97;28.73;;;;;;;;;;6195082;23;20253;-87
2022/01/27 05:00:04;;;;;;;52.75;29.52;;;;;;;;;;6194810;23;20055;-86
2022/01/27 05:05:03;;;;;;;47.67;27.23;;;;;;;;;;6231361;23;20015;-86
2022/01/27 05:07:29;;;;;;;52.60;28.65;;;;;;;;;;6194807;23;20061;-86
2022/01/27 05:10:00;;;;;;;46.47;26.90;;;;;;;;;;6221093;23;20001;-88
2022/01/27 05:12:36;;;;;;;48.13;28.65;;;;;;;;;;6194251;23;20000;-87
2022/01/27 05:15:02;;;;;;;52.10;28.27;;;;;;;;;;6221000;23;19996;-88
2022/01/27 05:17:28;;;;;;;59.78;30.27;;;;;;;;;;6194690;23;20328;-87
2022/01/27 05:19:57;;;;;;;53.88;29.30;;;;;;;;;;6221064;23;20080;-87
2022/01/27 05:22:23;;;;;;;64.95;32.60;;;;;;;;;;6220806;23;20076;-87
2022/01/27 05:24:49;;;;;;;74.10;33.70;;;;;;;;;;6194739;23;20054;-87
2022/01/27 05:27:15;;;;;;;66.82;34.58;;;;;;;;;;6194574;23;20005;-86
2022/01/27 05:29:41;;;;;;;70.40;36.50;;;;;;;;;;6194454;23;20019;-87
2022/01/27 05:32:07;;;;;;;67.68;35.95;;;;;;;;;;6221316;23;20001;-88
2022/01/27 05:34:33;;;;;;;73.03;36.53;;;;;;;;;;6221059;23;20008;-87
2022/01/27 05:37:01;;;;;;;92.68;41.45;;;;;;;;;;6221224;23;19996;-87
2022/01/27 05:39:27;;;;;;;95.75;43.83;;;;;;;;;;6194899;23;20008;-87
2022/01/27 05:41:53;;;;;;;87.60;40.53;;;;;;;;;;6220945;23;20119;-87
2022/01/27 05:44:19;;;;;;;61.08;34.35;;;;;;;;;;6194685;23;20007;-87
2022/01/27 05:46:45;;;;;;;62.45;34.33;;;;;;;;;;6220970;23;20047;-87
2022/01/27 05:49:11;;;;;;;63.38;34.30;;;;;;;;;;6194528;23;20008;-87
2022/01/27 05:51:37;;;;;;;75.35;39.42;;;;;;;;;;6220906;23;20004;-87
2022/01/27 05:54:03;;;;;;;88.32;42.78;;;;;;;;;;6195318;23;20066;-87
2022/01/27 05:56:29;;;;;;;74.30;38.03;;;;;;;;;;6196559;23;20233;-86
2022/01/27 06:01:59;;;;;;;91.30;43.53;;;;;;;;;;6222500;23;20011;-86
2022/01/27 06:04:25;;;;;;;74.70;37.55;;;;;;;;;;6222803;23;20031;-85
2022/01/27 06:06:53;;;;;;;70.10;35.33;;;;;;;;;;6222695;23;20012;-87
2022/01/27 06:09:19;;;;;;;64.00;33.95;;;;;;;;;;6222465;23;20059;-87
2022/01/27 06:11:45;;;;;;;87.93;41.47;;;;;;;;;;6195838;23;20390;-87
2022/01/27 06:14:11;;;;;;;83.07;42.10;;;;;;;;;;6222352;23;20069;-86
2022/01/27 06:16:40;;;;;;;83.03;42.35;;;;;;;;;;6222312;23;19997;-87
2022/01/27 06:19:07;;;;;;;91.53;46.83;;;;;;;;;;6222463;23;20084;-86
2022/01/27 06:21:35;;;;;;;94.15;50.35;;;;;;;;;;6222871;23;20020;-86
2022/01/27 06:24:02;;;;;;;77.22;41.33;;;;;;;;;;6222642;23;20430;-86
2022/01/27 06:26:29;;;;;;;67.80;37.50;;;;;;;;;;6195875;23;20051;-86
2022/01/27 06:28:55;;;;;;;68.32;36.42;;;;;;;;;;6195966;23;20008;-86
2022/01/27 06:31:22;;;;;;;68.95;36.47;;;;;;;;;;6195969;23;20020;-86
2022/01/27 06:33:48;;;;;;;70.30;38.13;;;;;;;;;;6222578;23;20039;-87
2022/01/27 06:36:15;;;;;;;71.05;37.25;;;;;;;;;;6196021;23;20036;-87
2022/01/27 06:38:41;;;;;;;69.03;37.28;;;;;;;;;;6222745;23;20016;-87
2022/01/27 06:41:07;;;;;;;74.93;39.65;;;;;;;;;;6222115;23;20005;-87
2022/01/27 06:43:33;;;;;;;65.65;36.15;;;;;;;;;;6196028;23;20035;-87
2022/01/27 06:45:59;;;;;;;70.70;35.67;;;;;;;;;;6221995;23;20009;-86
2022/01/27 06:48:25;;;;;;;62.20;34.25;;;;;;;;;;6195847;23;20494;-86
2022/01/27 06:50:54;;;;;;;59.03;34.22;;;;;;;;;;6196765;23;20005;-87
2022/01/27 06:53:21;;;;;;;52.58;30.85;;;;;;;;;;6222778;23;20233;-86
2022/01/27 06:55:48;;;;;;;57.00;32.47;;;;;;;;;;6222314;23;20016;-87
2022/01/27 06:58:14;;;;;;;67.28;36.95;;;;;;;;;;6222479;23;20084;-87
2022/01/27 07:00:40;;;;;;;81.35;44.20;;;;;;;;;;6221558;23;20124;-86
2022/01/27 07:03:06;;;;;;;138.13;79.20;;;;;;;;;;6195731;23;20092;-88
2022/01/27 07:05:33;;;;;;;252.10;118.60;;;;;;;;;;6221945;23;20060;-87
2022/01/27 07:07:59;;;;;;;410.25;180.68;;;;;;;;;;6222228;23;20080;-87
2022/01/27 07:10:25;;;;;;;349.65;145.32;;;;;;;;;;6221340;23;20368;-87
2022/01/27 07:12:51;;;;;;;436.10;182.65;;;;;;;;;;6222233;23;20013;-89
2022/01/27 07:15:17;;;;;;;476.50;223.57;;;;;;;;;;6221552;23;19997;-89
2022/01/27 07:17:44;;;;;;;550.95;277.13;;;;;;;;;;6222501;23;20015;-88
2022/01/27 07:20:10;;;;;;;486.77;258.27;;;;;;;;;;6221487;23;20024;-88
2022/01/27 07:22:37;;;;;;;389.48;214.65;;;;;;;;;;6195183;23;20012;-88
2022/01/27 07:25:04;;;;;;;192.80;111.50;;;;;;;;;;6222275;23;20071;-88
2022/01/27 07:27:31;;;;;;;149.32;84.75;;;;;;;;;;6222323;23;20027;-88
2022/01/27 07:29:58;;;;;;;88.43;50.85;;;;;;;;;;6221836;23;20422;-88
2022/01/27 07:32:24;;;;;;;76.18;42.95;;;;;;;;;;6195771;23;20043;-88
2022/01/27 07:34:50;;;;;;;64.65;35.35;;;;;;;;;;6195927;23;19997;-88
2022/01/27 07:37:16;;;;;;;62.83;36.17;;;;;;;;;;6195137;23;20386;-89
2022/01/27 07:39:42;;;;;;;64.68;37.38;;;;;;;;;;6222067;23;20007;-88
2022/01/27 07:42:08;;;;;;;63.80;35.95;;;;;;;;;;6195696;23;20364;-88
2022/01/27 07:44:34;;;;;;;68.68;38.90;;;;;;;;;;6222167;23;20031;-88
2022/01/27 07:47:00;;;;;;;89.45;45.53;;;;;;;;;;6221957;23;20015;-88
2022/01/27 07:49:28;;;;;;;113.28;52.88;;;;;;;;;;6194802;23;20091;-88
2022/01/27 07:51:54;;;;;;;135.68;56.65;;;;;;;;;;6221542;23;20012;-88
2022/01/27 07:54:21;;;;;;;130.57;54.10;;;;;;;;;;6221719;23;20416;-88
2022/01/27 07:56:47;;;;;;;122.47;53.67;;;;;;;;;;6195612;23;20012;-87
2022/01/27 07:59:13;;;;;;;104.90;49.10;;;;;;;;;;6195396;23;20059;-88
2022/01/27 08:01:39;;;;;;;95.47;47.13;;;;;;;;;;6194866;23;20017;-88
2022/01/27 08:04:05;;;;;;;102.95;52.08;;;;;;;;;;6221390;23;20016;-88
2022/01/27 08:06:31;;;;;;;97.00;50.92;;;;;;;;;;6195410;23;20047;-88
2022/01/27 08:08:57;;;;;;;85.40;45.63;;;;;;;;;;6221660;23;20008;-89
2022/01/27 08:11:23;;;;;;;69.85;37.67;;;;;;;;;;6221398;23;20008;-87
2022/01/27 08:13:49;;;;;;;77.00;41.55;;;;;;;;;;6222015;23;20012;-88
2022/01/27 08:16:15;;;;;;;80.07;39.97;;;;;;;;;;6195102;23;20005;-89
2022/01/27 08:18:41;;;;;;;102.40;48.53;;;;;;;;;;6221753;23;20000;-88
2022/01/27 08:21:07;;;;;;;82.07;43.17;;;;;;;;;;6221828;23;20027;-87
2022/01/27 08:23:34;;;;;;;84.50;43.58;;;;;;;;;;6194858;23;20027;-88
2022/01/27 08:26:08;;;;;;;89.25;44.08;;;;;;;;;;6221101;23;20001;-88
2022/01/27 08:28:40;;;;;;;107.78;49.88;;;;;;;;;;6194830;23;20001;-88
2022/01/27 08:31:07;;;;;;;106.78;50.13;;;;;;;;;;6195361;23;20100;-87
2022/01/27 08:33:34;;;;;;;100.15;47.47;;;;;;;;;;6195197;23;20331;-88
2022/01/27 08:36:00;;;;;;;88.72;46.80;;;;;;;;;;6221161;23;20004;-88
2022/01/27 08:38:27;;;;;;;86.88;46.42;;;;;;;;;;6221658;23;20012;-89
2022/01/27 08:40:53;;;;;;;80.28;43.22;;;;;;;;;;6221688;23;20001;-89
2022/01/27 08:43:19;;;;;;;72.60;38.70;;;;;;;;;;6221469;23;20004;-88
2022/01/27 08:45:46;;;;;;;70.28;37.90;;;;;;;;;;6221579;23;20005;-88
2022/01/27 08:48:17;;;;;;;70.50;39.20;;;;;;;;;;6194407;23;20005;-88
2022/01/27 08:50:50;;;;;;;76.03;38.65;;;;;;;;;;6194985;23;20001;-88
2022/01/27 08:53:16;;;;;;;75.18;40.13;;;;;;;;;;6221541;23;20015;-88
2022/01/27 08:55:44;;;;;;;112.65;51.22;;;;;;;;;;6221853;23;20064;-87
2022/01/27 08:58:11;;;;;;;153.80;65.68;;;;;;;;;;6221548;23;20291;-88
2022/01/27 09:00:37;;;;;;;159.68;67.95;;;;;;;;;;6221405;23;20424;-88
2022/01/27 09:03:03;;;;;;;121.53;56.05;;;;;;;;;;6194651;23;20045;-88
2022/01/27 09:05:29;;;;;;;81.28;43.35;;;;;;;;;;6220993;23;20012;-88
2022/01/27 09:07:57;;;;;;;87.20;47.22;;;;;;;;;;6220633;23;20012;-88
2022/01/27 09:10:23;;;;;;;105.57;52.22;;;;;;;;;;6194194;23;20015;-88
2022/01/27 09:12:49;;;;;;;97.00;49.58;;;;;;;;;;6194230;23;20000;-88
2022/01/27 09:15:15;;;;;;;85.28;45.03;;;;;;;;;;6220512;23;20000;-88
2022/01/27 09:17:41;;;;;;;75.25;43.70;;;;;;;;;;6221055;23;20028;-87
2022/01/27 09:20:09;;;;;;;135.98;60.63;;;;;;;;;;6193796;23;20085;-87
2022/01/27 09:22:36;;;;;;;100.63;51.47;;;;;;;;;;6221253;23;20005;-87
2022/01/27 09:25:09;;;;;;;106.13;55.05;;;;;;;;;;6194632;23;20005;-86
2022/01/27 09:27:36;;;;;;;121.65;56.47;;;;;;;;;;6221450;23;20008;-87
2022/01/27 09:30:02;;;;;;;171.48;70.07;;;;;;;;;;6197117;23;20028;-87
2022/01/27 09:32:28;;;;;;;143.80;61.03;;;;;;;;;;6196755;23;20055;-87
2022/01/27 09:34:54;;;;;;;170.70;72.90;;;;;;;;;;6223240;23;20072;-87
2022/01/27 09:37:20;;;;;;;187.10;71.85;;;;;;;;;;6223300;23;20252;-87
2022/01/27 09:39:46;;;;;;;202.88;75.63;;;;;;;;;;6223199;23;20004;-88
2022/01/27 09:42:12;;;;;;;224.00;81.82;;;;;;;;;;6223248;23;20023;-87
2022/01/27 09:44:41;;;;;;;248.93;88.95;;;;;;;;;;6223198;23;20382;-87
2022/01/27 09:47:10;;;;;;;213.48;76.55;;;;;;;;;;6222751;23;19997;-86
2022/01/27 09:49:41;;;;;;;198.75;71.75;;;;;;;;;;6196457;23;20005;-88
2022/01/27 09:52:07;;;;;;;161.82;64.88;;;;;;;;;;6223379;23;20000;-87
2022/01/27 09:54:34;;;;;;;147.48;58.45;;;;;;;;;;6222802;23;20008;-87
2022/01/27 09:57:00;;;;;;;94.35;44.13;;;;;;;;;;6222989;23;19997;-86
2022/01/27 09:59:27;;;;;;;100.70;47.20;;;;;;;;;;6223101;23;20012;-87
2022/01/27 10:02:03;;;;;;;88.90;43.85;;;;;;;;;;6222740;23;20386;-88
2022/01/27 10:04:50;;;;;;;211.98;67.90;;;;;;;;;;6223045;23;20008;-88
2022/01/27 10:07:17;;;;;;;139.85;55.65;;;;;;;;;;6196430;23;20328;-87
2022/01/27 10:09:57;;;;;;;117.57;55.00;;;;;;;;;;6196252;23;20004;-88
2022/01/27 10:12:36;;;;;;;104.80;48.33;;;;;;;;;;6222915;23;19997;-88
2022/01/27 10:15:09;;;;;;;71.03;36.55;;;;;;;;;;6222758;23;20083;-86
2022/01/27 10:17:38;;;;;;;80.35;41.63;;;;;;;;;;6196278;23;20008;-87
2022/01/27 10:20:14;;;;;;;96.53;49.63;;;;;;;;;;6223092;23;20008;-88
2022/01/27 10:22:40;;;;;;;101.50;52.05;;;;;;;;;;6222672;23;20011;-87
2022/01/27 10:25:09;;;;;;;89.93;47.00;;;;;;;;;;6196091;23;20332;-88
2022/01/27 10:28:07;;;;;;;77.00;41.60;;;;;;;;;;6195648;23;20058;-87
2022/01/27 10:33:00;;;;;;;209.73;77.28;;;;;;;;;;6233016;23;20032;-88
2022/01/27 10:35:27;;;;;;;148.23;58.10;;;;;;;;;;6196134;23;20032;-87
2022/01/27 10:38:02;;;;;;;99.60;49.30;;;;;;;;;;6222359;23;20008;-86
2022/01/27 10:40:33;;;;;;;92.82;45.50;;;;;;;;;;6195668;23;20046;-87
2022/01/27 10:43:20;;;;;;;84.57;44.70;;;;;;;;;;6222790;23;20043;-87
2022/01/27 10:48:49;;;;;;;111.72;53.47;;;;;;;;;;6221925;23;20047;-88
2022/01/27 10:51:27;;;;;;;128.75;58.55;;;;;;;;;;6222242;23;20023;-87
2022/01/27 10:54:05;;;;;;;151.52;67.80;;;;;;;;;;6222181;23;19997;-87
2022/01/27 10:56:35;;;;;;;220.00;86.57;;;;;;;;;;6222162;23;20008;-87
2022/01/27 10:59:03;;;;;;;179.57;74.32;;;;;;;;;;6195784;23;20008;-87
2022/01/27 11:01:41;;;;;;;105.88;51.15;;;;;;;;;;6222921;23;20051;-88
2022/01/27 11:04:09;;;;;;;108.60;51.80;;;;;;;;;;6195980;23;20380;-87
2022/01/27 11:06:36;;;;;;;94.88;49.03;;;;;;;;;;6221407;23;20013;-88
2022/01/27 11:09:08;;;;;;;171.57;70.45;;;;;;;;;;6222153;23;20011;-88
2022/01/27 11:11:35;;;;;;;118.75;57.88;;;;;;;;;;6195350;23;20011;-88
2022/01/27 11:14:01;;;;;;;83.13;44.67;;;;;;;;;;6222387;23;20023;-88
2022/01/27 11:16:34;;;;;;;80.72;43.03;;;;;;;;;;6194841;23;20004;-88
2022/01/27 11:19:14;;;;;;;;;;;;;;;;;;6196225;23;20008;-88
2022/01/27 11:21:43;;;;;;;93.00;43.92;;;;;;;;;;6221921;23;19899;-88
2022/01/27 11:24:17;;;;;;;79.18;40.60;;;;;;;;;;6195914;23;20009;-88
2022/01/27 11:26:44;;;;;;;71.68;36.08;;;;;;;;;;6222249;23;20059;-88
2022/01/27 11:29:12;;;;;;;60.88;34.25;;;;;;;;;;6195577;23;20043;-88
2022/01/27 11:31:50;;;;;;;58.63;31.70;;;;;;;;;;6222278;23;20001;-87
2022/01/27 11:34:17;;;;;;;74.93;35.88;;;;;;;;;;6221981;23;20004;-88
2022/01/27 11:37:01;;;;;;;58.67;29.75;;;;;;;;;;6195285;23;20307;-89
2022/01/27 11:40:03;;;;;;;74.35;34.08;;;;;;;;;;6222280;23;20005;-88
2022/01/27 11:42:35;;;;;;;61.08;31.25;;;;;;;;;;6101396;23;20006;-88
2022/01/27 11:45:19;;;;;;;106.28;44.20;;;;;;;;;;6101210;23;20007;-88
2022/01/27 11:47:50;;;;;;;133.07;52.25;;;;;;;;;;6101103;23;20462;-87
2022/01/27 11:50:36;;;;;;;114.60;47.28;;;;;;;;;;6100988;23;20024;-88
2022/01/27 11:53:03;;;;;;;112.68;48.90;;;;;;;;;;6076951;23;20063;-88
2022/01/27 11:55:30;;;;;;;80.40;39.40;;;;;;;;;;6101189;23;20095;-88
2022/01/27 11:57:56;;;;;;;104.50;50.70;;;;;;;;;;6100850;23;20077;-88
2022/01/27 12:00:23;;;;;;;150.35;63.50;;;;;;;;;;6100927;23;20010;-87
2022/01/27 12:03:10;;;;;;;186.55;70.57;;;;;;;;;;6101013;23;20019;-88
2022/01/27 12:05:41;;;;;;;200.82;73.05;;;;;;;;;;6100845;23;20002;-88
2022/01/27 12:08:13;;;;;;;142.07;58.17;;;;;;;;;;6100858;23;20074;-88
2022/01/27 12:10:40;;;;;;;127.18;57.40;;;;;;;;;;6101222;23;20318;-88
2022/01/27 12:13:37;;;;;;;60.20;35.40;;;;;;;;;;6100684;23;20026;-89
2022/01/27 12:19:21;;;;;;;70.90;37.05;;;;;;;;;;6201373;23;20032;-89
2022/01/27 12:21:56;;;;;;;59.47;32.78;;;;;;;;;;6130215;23;20466;-89
2022/01/27 12:24:24;;;;;;;58.50;31.52;;;;;;;;;;6130208;23;20010;-89
2022/01/27 12:27:07;;;;;;;75.00;39.00;;;;;;;;;;6130168;23;20002;-89
2022/01/27 12:29:40;;;;;;;72.90;36.10;;;;;;;;;;6129897;23;20388;-89
2022/01/27 12:32:29;;;;;;;78.57;40.60;;;;;;;;;;6105389;23;20005;-89
2022/01/27 12:34:56;;;;;;;76.07;42.95;;;;;;;;;;6019675;23;20321;-89
2022/01/27 12:37:31;;;;;;;68.22;38.20;;;;;;;;;;6043066;23;20006;-89
2022/01/27 12:39:59;;;;;;;84.57;43.90;;;;;;;;;;6043298;23;20007;-88
2022/01/27 12:42:31;;;;;;;76.90;40.42;;;;;;;;;;6043241;23;20007;-88
2022/01/27 12:45:03;;;;;;;80.60;44.13;;;;;;;;;;6019225;23;20279;-88
2022/01/27 12:47:30;;;;;;;136.90;49.15;;;;;;;;;;6019349;23;20067;-89
2022/01/27 12:50:06;;;;;;;87.20;44.75;;;;;;;;;;6019161;23;20022;-88
2022/01/27 12:52:37;;;;;;;88.43;39.80;;;;;;;;;;6043065;23;20287;-86
2022/01/27 12:55:04;;;;;;;72.70;38.35;;;;;;;;;;6043065;23;20007;-88
2022/01/27 12:57:32;;;;;;;84.03;41.65;;;;;;;;;;6043127;23;20003;-89
2022/01/27 12:59:58;;;;;;;142.02;61.42;;;;;;;;;;6043040;23;20011;-88
2022/01/27 13:02:25;;;;;;;77.80;41.67;;;;;;;;;;6048713;23;20114;-88
2022/01/27 13:04:53;;;;;;;68.78;41.58;;;;;;;;;;6071760;23;20090;-87
2022/01/27 13:07:20;;;;;;;85.07;36.15;;;;;;;;;;6047271;23;20054;-88
2022/01/27 13:10:07;;;;;;;75.63;36.53;;;;;;;;;;6071387;23;20007;-88
2022/01/27 13:12:40;;;;;;;74.88;34.92;;;;;;;;;;6188882;23;19997;-88
2022/01/27 13:15:10;;;;;;;62.35;33.75;;;;;;;;;;6194146;23;20000;-87
2022/01/27 13:18:02;;;;;;;64.30;35.05;;;;;;;;;;6194468;23;20395;-88
2022/01/27 13:20:31;;;;;;;77.15;37.13;;;;;;;;;;6219220;23;20059;-87
2022/01/27 13:23:11;;;;;;;81.00;36.28;;;;;;;;;;6221178;23;20005;-87
2022/01/27 13:25:42;;;;;;;68.40;33.60;;;;;;;;;;6194240;23;20001;-87
2022/01/27 13:28:21;;;;;;;61.88;32.47;;;;;;;;;;6221224;23;20004;-87
2022/01/27 13:30:50;;;;;;;85.65;35.80;;;;;;;;;;6221347;23;20051;-87
2022/01/27 13:33:17;;;;;;;88.72;37.78;;;;;;;;;;6221249;23;20251;-88
2022/01/27 13:35:49;;;;;;;109.15;40.67;;;;;;;;;;6220715;23;19996;-87
2022/01/27 13:38:29;;;;;;;99.55;38.42;;;;;;;;;;6221188;23;20020;-88
2022/01/27 13:41:25;;;;;;;91.35;37.55;;;;;;;;;;6221095;23;20067;-88
2022/01/27 13:43:55;;;;;;;87.60;38.58;;;;;;;;;;6194190;23;20019;-88
2022/01/27 13:46:40;;;;;;;78.88;33.63;;;;;;;;;;6194386;23;20036;-88
2022/01/27 13:49:07;;;;;;;80.68;32.28;;;;;;;;;;6221168;23;20009;-88
2022/01/27 13:51:44;;;;;;;86.25;37.95;;;;;;;;;;6221093;23;20419;-88
2022/01/27 13:54:10;;;;;;;74.05;35.05;;;;;;;;;;6193655;23;19996;-88
2022/01/27 13:56:40;;;;;;;61.67;34.92;;;;;;;;;;6221188;23;20032;-89
2022/01/27 13:59:11;;;;;;;121.60;49.45;;;;;;;;;;6221143;23;20009;-88
2022/01/27 14:01:38;;;;;;;123.47;53.63;;;;;;;;;;6193669;23;20040;-88
2022/01/27 14:04:04;;;;;;;57.00;32.70;;;;;;;;;;6193656;23;20102;-88
2022/01/27 14:06:30;;;;;;;65.32;34.60;;;;;;;;;;6221046;23;20050;-88
2022/01/27 14:08:58;;;;;;;62.63;35.25;;;;;;;;;;6220862;23;20000;-88
2022/01/27 14:11:34;;;;;;;59.60;32.90;;;;;;;;;;6220790;23;19993;-88
2022/01/27 14:14:01;;;;;;;57.75;32.28;;;;;;;;;;6217960;23;20007;-88
2022/01/27 14:16:28;;;;;;;60.70;33.40;;;;;;;;;;6221806;23;20370;-85
2022/01/27 14:18:54;;;;;;;59.22;31.77;;;;;;;;;;6195605;23;20015;-87
2022/01/27 14:21:23;;;;;;;62.67;34.90;;;;;;;;;;6221721;23;20237;-86
2022/01/27 14:26:25;;;;;;;69.60;35.22;;;;;;;;;;6232451;23;20019;-86
2022/01/27 14:28:52;;;;;;;66.82;35.08;;;;;;;;;;6195464;23;20013;-86
2022/01/27 14:31:18;;;;;;;67.82;35.47;;;;;;;;;;6222136;23;20004;-85
2022/01/27 14:33:45;;;;;;;68.75;38.22;;;;;;;;;;6195745;23;20058;-85
2022/01/27 14:36:12;;;;;;;66.90;35.95;;;;;;;;;;6222091;23;20007;-86
2022/01/27 14:38:39;;;;;;;68.65;37.78;;;;;;;;;;6222352;23;20011;-85
2022/01/27 14:41:05;;;;;;;65.82;37.22;;;;;;;;;;6222411;23;20376;-86
2022/01/27 14:43:32;;;;;;;70.53;39.13;;;;;;;;;;6221266;23;20035;-86
2022/01/27 14:45:59;;;;;;;81.28;41.85;;;;;;;;;;6222431;23;20043;-87
2022/01/27 14:48:26;;;;;;;85.70;44.65;;;;;;;;;;6221080;23;20031;-85
2022/01/27 14:50:52;;;;;;;75.50;40.95;;;;;;;;;;6221939;23;20071;-87
2022/01/27 14:53:18;;;;;;;82.40;42.80;;;;;;;;;;6195940;23;20004;-86
2022/01/27 14:55:45;;;;;;;82.97;41.60;;;;;;;;;;6221388;23;19997;-85
2022/01/27 15:01:15;;;;;;;83.03;41.78;;;;;;;;;;6221853;23;20011;-86
2022/01/27 15:03:41;;;;;;;109.35;51.05;;;;;;;;;;6221731;23;20213;-86
2022/01/27 15:06:09;;;;;;;108.57;50.58;;;;;;;;;;6222081;23;20047;-86
2022/01/27 15:08:35;;;;;;;96.40;47.22;;;;;;;;;;6222455;23;20023;-86
2022/01/27 15:11:01;;;;;;;94.60;44.60;;;;;;;;;;6222198;23;20561;-84
2022/01/27 15:13:27;;;;;;;82.90;43.20;;;;;;;;;;6221377;23;20004;-85
2022/01/27 15:18:51;;;;;;;93.90;46.15;;;;;;;;;;6222091;23;20020;-88
2022/01/27 15:21:18;;;;;;;102.30;50.10;;;;;;;;;;6221861;23;20056;-87
2022/01/27 15:23:44;;;;;;;104.07;49.00;;;;;;;;;;6221689;23;20084;-88
2022/01/27 15:26:12;;;;;;;131.07;57.53;;;;;;;;;;6195387;23;20324;-88
2022/01/27 15:28:38;;;;;;;93.18;48.00;;;;;;;;;;6222012;23;20079;-88